createdAt,value
2019-05-07T00:00:35.643Z,3.70
2019-05-07T00:03:04.158Z,4.50
2019-05-07T00:05:33.286Z,4.80
2019-05-07T00:08:02.986Z,4.37
2019-05-07T00:10:33.087Z,4.67
2019-05-07T00:13:02.378Z,4.50
2019-05-07T00:15:32.781Z,4.10
2019-05-07T00:18:03.183Z,5.20
2019-05-07T00:20:32.724Z,5.53
2019-05-07T00:23:02.987Z,5.00
2019-05-07T00:25:32.846Z,5.10
2019-05-07T00:28:02.790Z,5.50
2019-05-07T00:30:33.149Z,5.53
2019-05-07T00:33:02.796Z,5.60
2019-05-07T00:35:35.746Z,5.00
2019-05-07T00:38:05.875Z,5.77
2019-05-07T00:40:36.073Z,5.30
2019-05-07T00:43:08.969Z,5.90
2019-05-07T00:45:45.299Z,5.90
2019-05-07T00:48:13.759Z,5.80
2019-05-07T00:50:43.889Z,6.40
2019-05-07T00:53:13.065Z,6.50
2019-05-07T00:55:42.299Z,5.30
2019-05-07T00:58:13.054Z,6.30
2019-05-07T01:00:42.072Z,5.90
2019-05-07T01:03:12.806Z,6.83
2019-05-07T01:05:43.206Z,6.33
2019-05-07T01:08:13.191Z,6.97
2019-05-07T01:10:42.115Z,5.40
2019-05-07T01:13:12.644Z,6.93
2019-05-07T01:15:42.987Z,6.40
2019-05-07T01:18:12.344Z,6.53
2019-05-07T01:20:42.349Z,5.87
2019-05-07T01:23:13.410Z,5.90
2019-05-07T01:25:43.066Z,6.50
2019-05-07T01:28:13.177Z,6.17
2019-05-07T01:30:43.184Z,6.00
2019-05-07T01:33:16.299Z,6.67
2019-05-07T01:35:46.431Z,6.50
2019-05-07T01:38:16.536Z,6.40
2019-05-07T01:40:45.023Z,6.93
2019-05-07T01:43:13.512Z,6.90
2019-05-07T01:45:49.384Z,5.97
2019-05-07T01:48:15.446Z,5.53
2019-05-07T01:50:43.891Z,6.67
2019-05-07T01:53:12.421Z,5.80
2019-05-07T01:55:42.820Z,6.70
2019-05-07T01:58:12.517Z,7.13
2019-05-07T02:00:42.384Z,5.83
2019-05-07T02:03:29.067Z,6.00
2019-05-07T02:06:02.231Z,6.60
2019-05-07T02:08:42.250Z,6.23
2019-05-07T02:11:21.834Z,6.30
2019-05-07T02:13:52.835Z,6.40
2019-05-07T02:16:21.822Z,6.57
2019-05-07T02:18:52.665Z,6.80
2019-05-07T02:21:22.086Z,7.47
2019-05-07T02:23:52.335Z,7.03
2019-05-07T02:26:22.622Z,7.13
2019-05-07T02:28:51.856Z,6.83
2019-05-07T02:31:23.326Z,7.67
2019-05-07T02:33:53.824Z,7.87
2019-05-07T02:36:23.692Z,7.80
2019-05-07T02:38:59.057Z,7.53
2019-05-07T02:41:33.111Z,7.80
2019-05-07T02:44:04.218Z,9.13
2019-05-07T02:46:39.401Z,8.40
2019-05-07T02:49:15.241Z,7.60
2019-05-07T02:51:57.119Z,8.17
2019-05-07T02:54:33.225Z,9.57
2019-05-07T02:57:03.114Z,8.40
2019-05-07T02:59:33.594Z,9.10
2019-05-07T03:02:03.583Z,9.53
2019-05-07T03:04:33.393Z,9.33
2019-05-07T03:07:04.000Z,9.30
2019-05-07T03:09:32.942Z,9.50
2019-05-07T03:12:03.970Z,9.10
2019-05-07T03:14:32.397Z,9.30
2019-05-07T03:17:03.062Z,9.37
2019-05-07T03:19:33.152Z,9.27
2019-05-07T03:22:03.940Z,9.57
2019-05-07T03:24:34.485Z,9.90
2019-05-07T03:27:03.452Z,9.10
2019-05-07T03:29:33.328Z,10.43
2019-05-07T03:32:20.158Z,10.57
2019-05-07T03:35:07.610Z,10.27
2019-05-07T03:37:37.070Z,12.10
2019-05-07T03:40:07.227Z,11.23
2019-05-07T03:42:35.740Z,10.40
2019-05-07T03:45:07.084Z,11.00
2019-05-07T03:47:40.144Z,10.80
2019-05-07T03:50:14.222Z,11.53
2019-05-07T03:52:42.803Z,10.77
2019-05-07T03:55:14.129Z,10.50
2019-05-07T03:57:43.610Z,10.40
2019-05-07T04:00:13.115Z,11.23
2019-05-07T04:02:43.732Z,10.57
2019-05-07T04:05:13.990Z,12.00
2019-05-07T04:07:43.444Z,11.70
2019-05-07T04:10:14.961Z,11.10
2019-05-07T04:12:44.276Z,11.77
2019-05-07T04:15:14.637Z,11.80
2019-05-07T04:17:43.126Z,11.90
2019-05-07T04:20:13.431Z,12.23
2019-05-07T04:22:43.431Z,11.30
2019-05-07T04:25:16.913Z,11.93
2019-05-07T04:27:52.688Z,11.10
2019-05-07T04:30:23.316Z,13.37
2019-05-07T04:32:53.118Z,12.63
2019-05-07T04:35:38.754Z,12.20
2019-05-07T04:38:07.532Z,12.07
2019-05-07T04:40:36.031Z,12.07
2019-05-07T04:43:04.539Z,12.70
2019-05-07T04:45:34.010Z,12.00
2019-05-07T04:48:03.195Z,11.43
2019-05-07T04:50:42.671Z,11.40
2019-05-07T04:53:03.751Z,11.97
2019-05-07T04:55:33.519Z,11.47
2019-05-07T04:58:02.958Z,10.70
2019-05-07T05:00:33.600Z,10.30
2019-05-07T05:03:04.123Z,10.93
2019-05-07T05:05:33.107Z,11.10
2019-05-07T05:08:03.884Z,11.20
2019-05-07T05:10:33.745Z,11.93
2019-05-07T05:13:03.240Z,11.73
2019-05-07T05:15:32.192Z,10.73
2019-05-07T05:18:02.613Z,12.27
2019-05-07T05:20:48.985Z,10.50
2019-05-07T05:23:22.778Z,11.67
2019-05-07T05:25:52.234Z,10.50
2019-05-07T05:28:21.845Z,11.80
2019-05-07T05:30:52.769Z,10.60
2019-05-07T05:33:23.494Z,10.57
2019-05-07T05:35:52.533Z,9.90
2019-05-07T05:38:22.132Z,11.00
2019-05-07T05:40:52.046Z,10.60
2019-05-07T05:43:22.529Z,10.70
2019-05-07T05:45:53.896Z,9.97
2019-05-07T05:48:22.581Z,10.90
2019-05-07T05:50:53.676Z,9.87
2019-05-07T05:53:40.196Z,9.60
2019-05-07T05:56:11.848Z,8.77
2019-05-07T05:58:56.873Z,8.57
2019-05-07T06:01:27.372Z,9.70
2019-05-07T06:04:12.542Z,8.67
2019-05-07T06:06:42.753Z,8.17
2019-05-07T06:09:28.879Z,8.10
2019-05-07T06:12:15.216Z,8.37
2019-05-07T06:14:45.358Z,7.27
2019-05-07T06:17:15.568Z,7.40
2019-05-07T06:20:02.756Z,6.27
2019-05-07T06:22:48.686Z,7.63
2019-05-07T06:25:19.240Z,6.33
2019-05-07T06:27:47.701Z,6.70
2019-05-07T06:30:17.603Z,5.93
2019-05-07T06:32:46.060Z,6.50
2019-05-07T06:35:14.572Z,6.60
2019-05-07T06:37:43.997Z,6.30
2019-05-07T06:40:14.676Z,5.50
2019-05-07T06:42:47.735Z,5.10
2019-05-07T06:45:18.358Z,5.47
2019-05-07T06:47:46.797Z,4.97
2019-05-07T06:50:15.293Z,5.87
2019-05-07T06:52:43.803Z,5.27
2019-05-07T06:55:13.204Z,5.10
2019-05-07T06:57:42.577Z,5.23
2019-05-07T07:00:13.392Z,4.80
2019-05-07T07:02:43.476Z,4.13
2019-05-07T07:05:13.760Z,4.27
2019-05-07T07:07:52.893Z,3.50
2019-05-07T07:10:22.998Z,4.57
2019-05-07T07:12:52.962Z,4.23
2019-05-07T07:15:23.198Z,4.33
2019-05-07T07:17:52.396Z,4.80
2019-05-07T07:20:21.853Z,3.40
2019-05-07T07:22:52.071Z,3.10
2019-05-07T07:25:22.737Z,3.50
2019-05-07T07:27:52.057Z,3.33
2019-05-07T07:30:22.546Z,3.17
2019-05-07T07:32:52.642Z,3.23
2019-05-07T07:35:22.580Z,3.83
2019-05-07T07:37:53.058Z,2.57
2019-05-07T07:40:32.721Z,3.27
2019-05-07T07:43:04.859Z,3.20
2019-05-07T07:45:32.416Z,2.70
2019-05-07T07:48:02.282Z,2.07
2019-05-07T07:50:33.046Z,2.80
2019-05-07T07:53:02.527Z,2.50
2019-05-07T07:55:33.059Z,2.07
2019-05-07T07:58:03.345Z,2.20
2019-05-07T08:00:36.674Z,2.73
2019-05-07T08:03:06.801Z,1.97
2019-05-07T08:05:35.283Z,1.83
2019-05-07T08:08:03.995Z,2.40
2019-05-07T08:10:32.700Z,3.17
2019-05-07T08:13:01.998Z,2.40
2019-05-07T08:15:32.867Z,2.60
2019-05-07T08:18:02.878Z,1.90
2019-05-07T08:20:32.656Z,2.40
2019-05-07T08:23:02.991Z,2.30
2019-05-07T08:25:49.467Z,2.37
2019-05-07T08:28:19.086Z,2.10
2019-05-07T08:31:05.677Z,2.60
2019-05-07T08:33:36.361Z,2.50
2019-05-07T08:36:08.863Z,2.30
2019-05-07T08:38:52.851Z,2.00
2019-05-07T08:41:22.589Z,2.57
2019-05-07T08:44:07.301Z,1.90
2019-05-07T08:46:37.084Z,1.90
2019-05-07T08:49:07.349Z,1.87
2019-05-07T08:51:35.875Z,2.10
2019-05-07T08:54:06.869Z,2.50
2019-05-07T08:56:36.710Z,1.97
2019-05-07T08:59:06.195Z,2.13
2019-05-07T09:01:36.646Z,2.10
2019-05-07T09:04:05.819Z,2.53
2019-05-07T09:06:34.351Z,1.70
2019-05-07T09:09:06.678Z,2.33
2019-05-07T09:11:35.189Z,2.03
2019-05-07T09:14:03.692Z,1.77
2019-05-07T09:16:32.162Z,2.23
2019-05-07T09:19:02.175Z,2.00
2019-05-07T09:21:32.213Z,1.80
2019-05-07T09:24:02.552Z,1.70
2019-05-07T09:26:32.971Z,2.33
2019-05-07T09:29:03.161Z,1.97
2019-05-07T09:31:36.243Z,2.00
2019-05-07T09:34:04.817Z,1.50
2019-05-07T09:36:34.931Z,1.80
2019-05-07T09:39:05.003Z,1.40
2019-05-07T09:41:33.450Z,2.03
2019-05-07T09:44:03.168Z,1.80
2019-05-07T09:46:32.535Z,1.80
2019-05-07T09:49:03.084Z,1.80
2019-05-07T09:51:32.294Z,1.50
2019-05-07T09:54:02.537Z,1.50
2019-05-07T09:56:31.975Z,1.63
2019-05-07T09:59:02.221Z,1.53
2019-05-07T10:01:31.932Z,1.50
2019-05-07T10:04:02.638Z,2.03
2019-05-07T10:06:32.051Z,1.70
2019-05-07T10:09:02.705Z,1.57
2019-05-07T10:11:35.404Z,1.50
2019-05-07T10:14:09.098Z,1.90
2019-05-07T10:16:45.205Z,1.83
2019-05-07T10:19:13.896Z,2.13
2019-05-07T10:21:42.588Z,2.10
2019-05-07T10:24:12.873Z,2.40
2019-05-07T10:26:42.857Z,1.90
2019-05-07T10:29:12.629Z,1.70
2019-05-07T10:31:42.412Z,1.57
2019-05-07T10:34:12.281Z,1.80
2019-05-07T10:36:42.155Z,1.80
2019-05-07T10:39:12.734Z,1.53
2019-05-07T10:41:42.496Z,1.60
2019-05-07T10:44:12.062Z,1.60
2019-05-07T10:46:42.325Z,1.67
2019-05-07T10:49:18.615Z,1.77
2019-05-07T10:51:47.195Z,1.80
2019-05-07T10:54:15.672Z,2.00
2019-05-07T10:56:44.214Z,2.07
2019-05-07T10:59:12.694Z,1.93
2019-05-07T11:01:45.314Z,1.73
2019-05-07T11:04:13.838Z,3.00
2019-05-07T11:06:42.331Z,1.90
2019-05-07T11:09:10.884Z,1.80
2019-05-07T11:11:39.375Z,1.80
2019-05-07T11:14:07.975Z,2.20
2019-05-07T11:16:38.170Z,1.90
2019-05-07T11:19:06.752Z,2.20
2019-05-07T11:21:35.260Z,2.00
2019-05-07T11:24:03.865Z,1.90
2019-05-07T11:26:32.973Z,1.80
2019-05-07T11:29:02.378Z,1.50
2019-05-07T11:31:36.682Z,2.00
2019-05-07T11:34:05.241Z,1.50
2019-05-07T11:36:34.465Z,1.53
2019-05-07T11:39:04.818Z,2.00
2019-05-07T11:41:47.177Z,1.90
2019-05-07T11:44:17.292Z,1.97
2019-05-07T11:47:03.571Z,2.30
2019-05-07T11:49:49.929Z,1.50
2019-05-07T11:52:19.272Z,1.50
2019-05-07T11:54:47.735Z,1.47
2019-05-07T11:57:16.222Z,1.70
2019-05-07T11:59:44.646Z,1.80
2019-05-07T12:02:13.224Z,1.60
2019-05-07T12:04:42.214Z,1.63
2019-05-07T12:07:11.893Z,1.80
2019-05-07T12:09:40.532Z,2.70
2019-05-07T12:12:09.076Z,1.70
2019-05-07T12:14:37.520Z,1.73
2019-05-07T12:17:06.081Z,1.83
2019-05-07T12:19:34.604Z,2.17
2019-05-07T12:22:04.179Z,1.40
2019-05-07T12:24:32.906Z,1.23
2019-05-07T12:27:02.669Z,1.20
2019-05-07T12:29:32.259Z,1.30
2019-05-07T12:32:18.872Z,1.30
2019-05-07T12:34:48.979Z,1.40
2019-05-07T12:37:17.442Z,2.60
2019-05-07T12:39:45.903Z,1.60
2019-05-07T12:42:14.351Z,1.33
2019-05-07T12:44:43.356Z,1.67
2019-05-07T12:47:12.161Z,1.17
2019-05-07T12:49:42.739Z,1.40
2019-05-07T12:52:12.773Z,1.80
2019-05-07T12:54:48.633Z,1.67
2019-05-07T12:57:17.175Z,2.07
2019-05-07T12:59:45.619Z,1.30
2019-05-07T13:02:38.113Z,1.00
2019-05-07T13:05:02.947Z,1.40
2019-05-07T13:07:33.350Z,1.10
2019-05-07T13:10:02.640Z,1.23
2019-05-07T13:12:32.169Z,1.50
2019-05-07T13:15:02.997Z,1.27
2019-05-07T13:17:31.088Z,1.80
2019-05-07T13:20:01.617Z,1.37
2019-05-07T13:22:29.767Z,1.20
2019-05-07T13:24:58.291Z,1.40
2019-05-07T13:27:26.763Z,1.80
2019-05-07T13:29:55.293Z,1.40
2019-05-07T13:32:24.912Z,1.33
2019-05-07T13:34:54.007Z,1.33
2019-05-07T13:37:24.516Z,1.27
2019-05-07T13:39:54.847Z,1.80
2019-05-07T13:42:43.502Z,1.70
2019-05-07T13:45:13.199Z,1.90
2019-05-07T13:47:41.667Z,1.80
2019-05-07T13:50:11.917Z,2.23
2019-05-07T13:52:43.148Z,4.00
2019-05-07T13:55:12.953Z,1.60
2019-05-07T13:57:41.707Z,2.00
2019-05-07T14:00:12.974Z,1.80
2019-05-07T14:02:42.176Z,1.60
2019-05-07T14:05:13.985Z,1.87
2019-05-07T14:07:43.246Z,1.70
2019-05-07T14:10:12.705Z,1.50
2019-05-07T14:12:42.537Z,2.00
2019-05-07T14:15:12.551Z,1.60
2019-05-07T14:17:41.198Z,1.90
2019-05-07T14:20:09.710Z,1.60
2019-05-07T14:22:38.163Z,1.70
2019-05-07T14:25:07.677Z,1.30
2019-05-07T14:27:36.147Z,1.73
2019-05-07T14:30:07.389Z,1.80
2019-05-07T14:32:53.448Z,1.40
2019-05-07T14:35:23.553Z,1.77
2019-05-07T14:37:56.369Z,1.60
2019-05-07T14:40:25.162Z,1.73
2019-05-07T14:42:58.372Z,1.63
2019-05-07T14:45:26.847Z,1.70
2019-05-07T14:47:55.397Z,1.70
2019-05-07T14:50:23.916Z,1.77
2019-05-07T14:52:55.221Z,1.43
2019-05-07T14:55:22.679Z,4.80
2019-05-07T14:57:52.433Z,2.20
2019-05-07T15:00:22.548Z,2.10
2019-05-07T15:02:52.477Z,1.73
2019-05-07T15:05:22.360Z,1.70
2019-05-07T15:07:51.191Z,1.70
2019-05-07T15:10:22.021Z,1.60
2019-05-07T15:12:52.197Z,2.00
2019-05-07T15:15:21.931Z,1.47
2019-05-07T15:18:04.079Z,1.90
2019-05-07T15:20:33.122Z,2.23
2019-05-07T15:23:04.699Z,2.17
2019-05-07T15:25:33.183Z,1.87
2019-05-07T15:28:01.915Z,2.20
2019-05-07T15:30:32.579Z,1.80
2019-05-07T15:33:02.262Z,1.50
2019-05-07T15:35:32.029Z,2.00
2019-05-07T15:38:02.493Z,1.90
2019-05-07T15:40:32.950Z,1.67
2019-05-07T15:43:02.157Z,1.93
2019-05-07T15:45:31.037Z,2.10
2019-05-07T15:47:59.507Z,2.00
2019-05-07T15:50:32.246Z,2.40
2019-05-07T15:53:05.693Z,2.30
2019-05-07T15:55:34.233Z,2.00
2019-05-07T15:58:02.897Z,2.20
2019-05-07T16:00:33.590Z,1.53
2019-05-07T16:03:06.611Z,1.70
2019-05-07T16:05:35.228Z,1.70
2019-05-07T16:08:04.751Z,1.97
2019-05-07T16:10:33.306Z,1.90
2019-05-07T16:13:01.930Z,1.63
2019-05-07T16:15:31.978Z,1.67
2019-05-07T16:18:02.894Z,1.90
2019-05-07T16:20:32.602Z,2.10
2019-05-07T16:23:14.418Z,2.10
2019-05-07T16:25:33.240Z,2.00
2019-05-07T16:28:04.750Z,1.70
2019-05-07T16:30:32.419Z,1.60
2019-05-07T16:33:02.119Z,2.00
2019-05-07T16:35:32.039Z,2.00
2019-05-07T16:38:00.773Z,1.73
2019-05-07T16:40:29.255Z,1.63
2019-05-07T16:42:57.739Z,1.87
2019-05-07T16:45:26.185Z,1.67
2019-05-07T16:47:54.789Z,1.90
2019-05-07T16:50:23.443Z,2.97
2019-05-07T16:52:52.517Z,2.73
2019-05-07T16:55:23.109Z,1.97
2019-05-07T16:58:01.903Z,2.17
2019-05-07T17:00:34.877Z,1.60
2019-05-07T17:03:05.058Z,1.87
2019-05-07T17:05:33.522Z,2.17
2019-05-07T17:08:03.753Z,1.90
2019-05-07T17:10:32.217Z,1.90
2019-05-07T17:13:02.779Z,1.77
2019-05-07T17:15:31.344Z,2.37
2019-05-07T17:17:59.819Z,1.73
2019-05-07T17:20:28.553Z,1.50
2019-05-07T17:22:57.765Z,2.20
2019-05-07T17:25:38.287Z,1.70
2019-05-07T17:28:12.472Z,1.80
2019-05-07T17:30:42.074Z,1.70
2019-05-07T17:33:12.605Z,1.80
2019-05-07T17:35:42.363Z,1.90
2019-05-07T17:38:12.887Z,2.00
2019-05-07T17:40:42.396Z,1.90
2019-05-07T17:43:12.317Z,1.50
2019-05-07T17:45:42.814Z,2.00
2019-05-07T17:48:12.334Z,2.10
2019-05-07T17:50:45.605Z,1.80
2019-05-07T17:53:14.167Z,2.37
2019-05-07T17:55:42.809Z,1.53
2019-05-07T17:58:12.920Z,2.77
2019-05-07T18:00:43.864Z,1.93
2019-05-07T18:03:32.667Z,1.80
2019-05-07T18:06:02.416Z,1.80
2019-05-07T18:08:32.534Z,2.00
2019-05-07T18:11:02.517Z,2.10
2019-05-07T18:13:32.265Z,2.33
2019-05-07T18:16:02.947Z,2.17
2019-05-07T18:18:32.745Z,2.13
2019-05-07T18:21:02.427Z,2.07
2019-05-07T18:23:32.451Z,2.10
2019-05-07T18:26:01.016Z,2.30
2019-05-07T18:28:29.786Z,1.97
2019-05-07T18:30:59.015Z,1.97
2019-05-07T18:33:33.599Z,1.90
2019-05-07T18:36:02.851Z,1.90
2019-05-07T18:38:32.911Z,2.20
2019-05-07T18:41:02.850Z,2.00
2019-05-07T18:43:33.245Z,2.10
2019-05-07T18:46:02.327Z,2.17
2019-05-07T18:48:31.411Z,2.50
2019-05-07T18:51:00.047Z,2.93
2019-05-07T18:53:28.535Z,2.70
2019-05-07T18:55:57.109Z,3.40
2019-05-07T18:58:25.722Z,2.87
2019-05-07T19:00:55.871Z,3.77
2019-05-07T19:03:25.463Z,3.30
2019-05-07T19:05:55.351Z,3.20
2019-05-07T19:08:23.842Z,3.97
2019-05-07T19:10:52.356Z,3.50
2019-05-07T19:13:22.216Z,3.20
2019-05-07T19:15:53.014Z,3.60
2019-05-07T19:18:22.795Z,3.47
2019-05-07T19:20:52.984Z,4.00
2019-05-07T19:23:22.304Z,3.93
2019-05-07T19:25:52.233Z,5.00
2019-05-07T19:28:22.430Z,5.03
2019-05-07T19:30:52.825Z,6.07
2019-05-07T19:33:26.715Z,6.37
2019-05-07T19:35:52.937Z,6.67
2019-05-07T19:38:21.459Z,6.00
2019-05-07T19:40:50.043Z,6.90
2019-05-07T19:43:18.487Z,6.17
2019-05-07T19:45:47.210Z,6.30
2019-05-07T19:48:15.643Z,6.13
2019-05-07T19:50:44.135Z,5.77
2019-05-07T19:53:12.686Z,5.00
2019-05-07T19:56:01.885Z,3.57
2019-05-07T19:58:29.665Z,4.10
2019-05-07T20:00:58.297Z,4.17
2019-05-07T20:03:26.779Z,4.67
2019-05-07T20:05:55.262Z,4.60
2019-05-07T20:08:23.737Z,3.97
2019-05-07T20:10:59.844Z,4.07
2019-05-07T20:13:28.343Z,4.63
2019-05-07T20:16:02.869Z,5.40
2019-05-07T20:18:32.657Z,5.13
2019-05-07T20:21:02.711Z,4.50
2019-05-07T20:23:40.209Z,5.80
2019-05-07T20:26:08.995Z,6.40
2019-05-07T20:28:37.570Z,6.10
2019-05-07T20:31:06.276Z,6.70
2019-05-07T20:33:34.789Z,7.30
2019-05-07T20:36:03.907Z,7.30
2019-05-07T20:38:32.354Z,8.00
2019-05-07T20:41:02.069Z,7.50
2019-05-07T20:43:32.603Z,8.73
2019-05-07T20:46:02.625Z,7.37
2019-05-07T20:48:32.488Z,8.10
2019-05-07T20:51:01.537Z,8.00
2019-05-07T20:53:48.083Z,8.60
2019-05-07T20:56:18.267Z,8.40
2019-05-07T20:58:46.706Z,8.30
2019-05-07T21:01:15.260Z,8.87
2019-05-07T21:03:43.814Z,8.53
2019-05-07T21:06:12.308Z,9.80
2019-05-07T21:08:42.731Z,9.40
2019-05-07T21:11:11.937Z,8.80
2019-05-07T21:13:44.091Z,8.40
2019-05-07T21:16:12.678Z,7.33
2019-05-07T21:18:42.128Z,7.13
2019-05-07T21:21:12.495Z,7.83
2019-05-07T21:23:43.184Z,8.57
2019-05-07T21:26:13.093Z,7.70
2019-05-07T21:28:43.142Z,7.67
2019-05-07T21:31:12.187Z,7.17
2019-05-07T21:33:42.836Z,7.70
2019-05-07T21:36:12.124Z,7.50
2019-05-07T21:38:42.530Z,7.37
2019-05-07T21:41:12.890Z,7.47
2019-05-07T21:43:44.240Z,7.20
2019-05-07T21:46:12.833Z,6.87
2019-05-07T21:48:41.637Z,6.60
2019-05-07T21:51:12.249Z,7.33
2019-05-07T21:53:42.971Z,7.17
2019-05-07T21:56:31.378Z,6.73
2019-05-07T21:59:03.041Z,7.17
2019-05-07T22:01:35.832Z,6.40
2019-05-07T22:04:04.673Z,6.30
2019-05-07T22:06:33.144Z,6.50
2019-05-07T22:09:02.139Z,6.97
2019-05-07T22:11:32.289Z,6.77
2019-05-07T22:14:02.099Z,6.83
2019-05-07T22:16:32.799Z,7.63
2019-05-07T22:19:02.691Z,6.30
2019-05-07T22:21:33.961Z,7.30
2019-05-07T22:24:03.030Z,7.87
2019-05-07T22:26:32.346Z,7.37
2019-05-07T22:29:03.144Z,8.60
2019-05-07T22:31:32.839Z,10.43
2019-05-07T22:34:19.193Z,10.97
2019-05-07T22:36:47.681Z,11.77
2019-05-07T22:39:16.136Z,12.37
2019-05-07T22:41:44.646Z,12.97
2019-05-07T22:44:13.087Z,10.60
2019-05-07T22:46:42.302Z,11.23
2019-05-07T22:49:12.247Z,10.80
2019-05-07T22:51:40.982Z,10.00
2019-05-07T22:54:11.707Z,11.50
2019-05-07T22:56:59.620Z,9.30
2019-05-07T22:59:28.220Z,8.77
2019-05-07T23:01:56.665Z,9.43
2019-05-07T23:04:25.187Z,7.70
2019-05-07T23:06:53.642Z,7.77
2019-05-07T23:09:22.633Z,8.60
2019-05-07T23:11:52.651Z,7.30
2019-05-07T23:14:22.546Z,7.43
2019-05-07T23:16:54.963Z,8.07
2019-05-07T23:19:22.068Z,7.80
2019-05-07T23:21:52.130Z,7.40
2019-05-07T23:24:22.661Z,7.83
2019-05-07T23:26:53.292Z,7.13
2019-05-07T23:29:22.544Z,7.20
2019-05-07T23:31:52.962Z,8.70
2019-05-07T23:34:22.160Z,6.90
2019-05-07T23:36:53.300Z,7.00
2019-05-07T23:39:22.869Z,7.07
2019-05-07T23:41:52.969Z,7.30
2019-05-07T23:44:22.858Z,6.80
2019-05-07T23:46:52.062Z,6.73
2019-05-07T23:49:22.977Z,7.93
2019-05-07T23:51:52.804Z,7.33
2019-05-07T23:54:22.938Z,7.60
2019-05-07T23:57:05.391Z,6.60
2019-05-07T23:59:22.142Z,6.83
